Airfield :







YOU CAN JOIN US ON...

 
LOGIN :

Register | Disclaimer

   EN    FR    IT 

 









Legend :    VFR   Marginal VFR   IFR   Intensive IFR   Very Intensive IFR
Visi :
Ceiling :
>= 8 km
>= 3000ft
5 to 8 km
1000 to 3000 ft
1500m to 5 km
500 to 1000 ft
800 to 1500m
200 to 500 ft
< 800m
< 200 ft
Symbols :   Thunderstorms  Fog  Heavy snow  Heavy precipitations  Wind > 20 kt






- Airport Elevation : 9 ft
- IATA code : SJU


TJSJ - Luis Munoz Marin Int.

CURRENT METAR :
  • 110256Z 12004KT 10SM FEW020 SCT029 SCT040 26/23 A3006 RMK AO2 RAB33E46 SLP178 VCSH N SE W P0003 60003 T02610233 50004

EXPIRED METARs :
  • 110156Z 12005KT 10SM FEW029 SCT037 26/23 A3007 RMK AO2 RAB03E12 SLP181 P0000 T02610233
  • 110056Z 11005KT 10SM SCT030 26/23 A3006 RMK AO2 RAE08 SLP178 P0000 T02610233

TAF TJSJ
Valid from the 11 at 00:00 until the 12 at 00:00 UTC


102320Z 1100/1124 08012G20KT P6SM VCSH SCT024 SCT060
FM110600 08012G20KT P6SM VCTS SCT020CB BKN030
FM111000 08010KT P6SM SHRA SCT040 SCT060
FM111600 08017G25KT P6SM VCTS SCT020CB BKN040



MET'MAP, your aeronautical weather chart ! - Copyright ORBIFLY December 2007 - Disclaimer

ORBIFLY MET'MAP TEAM :

Programming & Development : Alexandra Zaïnal
Concept & original design : Baudouin d'Aumeries
Assistance for programming : Marc-Olivier Méhu
Technical & hardware support : Manuel Goepfert

Contact : metmap@orbifly.com




SOURCES & CREDITS :

   NOAA